Time;durP1;ratioP1;P1;durP2;ratioP2;P2;SDS_P1;SDS_P2;PMS_P1;PMS_P2;Temp;Humidity;BMP_temperature;BMP_pressure;BME280_temperature;BME280_humidity;BME280_pressure;Samples;Min_cycle;Max_cycle;Signal;HPM_P1;HPM_P2
2022/06/18 00:00:12;;;;;;;14.10;3.50;;;;;;;14.88;63.69;100889.40;105851;1271;25301;-62
2022/06/18 00:03:04;;;;;;;16.80;3.70;;;;;;;14.85;63.76;100887.33;105844;1270;22540;-62
2022/06/18 00:05:37;;;;;;;13.20;3.80;;;;;;;14.84;64.18;100883.28;105720;1271;22525;-62
2022/06/18 00:08:14;;;;;;;12.50;2.90;;;;;;;14.83;64.29;100880.86;105785;1269;24308;-62
2022/06/18 00:10:48;;;;;;;11.80;3.20;;;;;;;14.84;64.63;100880.88;106012;1271;24255;-62
2022/06/18 00:13:41;;;;;;;12.60;3.30;;;;;;;14.84;64.66;100874.95;105868;1270;22560;-62
2022/06/18 00:16:15;;;;;;;12.20;3.40;;;;;;;14.86;64.82;100876.70;105775;1271;25248;-63
2022/06/18 00:18:47;;;;;;;10.60;3.30;;;;;;;14.86;65.07;100874.29;105913;1271;24313;-62
2022/06/18 00:21:23;;;;;;;13.40;3.60;;;;;;;14.83;65.35;100872.33;105734;1272;22592;-62
2022/06/18 00:23:55;;;;;;;13.30;3.80;;;;;;;14.82;65.37;100872.57;105974;1271;23153;-62
2022/06/18 00:26:26;;;;;;;13.10;4.00;;;;;;;14.80;65.47;100872.60;106045;1270;23972;-62
2022/06/18 00:28:58;;;;;;;12.30;3.80;;;;;;;14.80;65.78;100869.27;105991;1270;22534;-63
2022/06/18 00:31:32;;;;;;;11.20;3.50;;;;;;;14.79;65.92;100868.65;105894;1271;24259;-62
2022/06/18 00:34:03;;;;;;;14.00;3.30;;;;;;;14.78;66.04;100868.34;105736;1270;25369;-62
2022/06/18 00:36:36;;;;;;;11.10;2.80;;;;;;;14.78;66.15;100868.02;105799;1270;24411;-62
2022/06/18 00:39:11;;;;;;;13.50;3.60;;;;;;;14.77;66.36;100866.08;105822;1271;25660;-62
2022/06/18 00:41:43;;;;;;;16.30;3.50;;;;;;;14.77;66.57;100865.77;105776;1271;22668;-61
2022/06/18 00:44:24;;;;;;;9.60;3.10;;;;;;;14.76;66.71;100869.34;105927;1270;22529;-63
2022/06/18 00:47:07;;;;;;;11.80;3.40;;;;;;;14.76;66.75;100867.19;105834;1271;24215;-62
2022/06/18 00:49:45;;;;;;;10.90;2.90;;;;;;;14.76;66.99;100868.15;105864;1270;22527;-62
2022/06/18 00:52:21;;;;;;;9.50;2.60;;;;;;;14.76;67.08;100861.00;105975;1270;22527;-62
2022/06/18 00:54:58;;;;;;;10.10;2.60;;;;;;;14.77;67.40;100853.25;105950;1271;22577;-61
2022/06/18 00:57:36;;;;;;;12.40;3.20;;;;;;;14.77;67.62;100855.09;105952;1270;24349;-61
2022/06/18 01:00:14;;;;;;;10.20;2.80;;;;;;;14.78;67.93;100856.11;105824;1270;22529;-62
2022/06/18 01:02:50;;;;;;;12.20;3.00;;;;;;;14.79;68.13;100854.55;105922;1270;22533;-61
2022/06/18 01:05:25;;;;;;;9.90;3.10;;;;;;;14.80;68.17;100854.85;105913;1270;24811;-62
2022/06/18 01:08:01;;;;;;;11.40;2.90;;;;;;;14.83;68.32;100849.83;106027;1271;22549;-62
2022/06/18 01:10:37;;;;;;;20.60;3.20;;;;;;;14.85;68.69;100852.98;105818;1271;25213;-61
2022/06/18 01:13:12;;;;;;;10.40;3.00;;;;;;;14.87;68.81;100853.01;105899;1270;23161;-62
2022/06/18 01:15:46;;;;;;;12.30;2.90;;;;;;;14.88;68.87;100852.20;105615;1271;26199;-62
2022/06/18 01:18:18;;;;;;;9.70;2.80;;;;;;;14.90;68.99;100853.70;105742;1270;22544;-61
2022/06/18 01:20:53;;;;;;;10.40;2.80;;;;;;;14.91;68.99;100856.59;105655;1271;22629;-61
2022/06/18 01:23:35;;;;;;;12.00;3.20;;;;;;;14.93;69.38;100853.90;105815;1270;22567;-62
2022/06/18 01:26:08;;;;;;;9.60;2.80;;;;;;;14.95;69.34;100850.13;105656;1271;23173;-62
2022/06/18 01:28:40;;;;;;;11.80;2.80;;;;;;;14.96;69.46;100850.45;105687;1271;22544;-62
2022/06/18 01:31:12;;;;;;;12.80;3.00;;;;;;;14.98;69.36;100849.77;105722;1270;23852;-62
2022/06/18 01:33:43;;;;;;;9.60;2.50;;;;;;;14.99;69.56;100845.48;105640;1271;22687;-62
2022/06/18 01:36:15;;;;;;;10.30;3.00;;;;;;;15.01;69.73;100843.70;105632;1270;25369;-62
2022/06/18 01:38:49;;;;;;;8.10;1.90;;;;;;;15.03;69.73;100842.55;105672;1271;22571;-63
2022/06/18 01:44:20;;;;;;;7.70;2.10;;;;;;;15.08;69.85;100836.05;105664;1270;23259;-62
2022/06/18 01:46:55;;;;;;;10.00;3.00;;;;;;;15.09;69.96;100834.48;105550;1270;22549;-63
2022/06/18 01:49:32;;;;;;;13.00;2.50;;;;;;;15.13;69.89;100829.81;105938;1271;22573;-62
2022/06/18 01:52:08;;;;;;;9.80;2.30;;;;;;;15.14;69.95;100825.73;105609;1270;25328;-61
2022/06/18 01:54:43;;;;;;;9.40;2.20;;;;;;;15.17;69.96;100824.48;105690;1271;22524;-61
2022/06/18 01:57:19;;;;;;;5.70;1.90;;;;;;;15.19;69.74;100822.41;105715;1271;25365;-62
2022/06/18 01:59:54;;;;;;;12.30;2.50;;;;;;;15.21;69.69;100818.73;105699;1270;22528;-62
2022/06/18 02:02:26;;;;;;;8.80;2.20;;;;;;;15.23;69.72;100815.80;105672;1271;22544;-64
2022/06/18 02:04:58;;;;;;;7.70;2.00;;;;;;;15.25;69.84;100814.29;105786;1270;22625;-62
2022/06/18 02:07:30;;;;;;;10.70;2.20;;;;;;;15.27;69.90;100813.75;105842;1271;25257;-64
2022/06/18 02:10:06;;;;;;;9.60;2.10;;;;;;;15.29;70.01;100812.84;105951;1270;22526;-62
2022/06/18 02:12:42;;;;;;;11.50;2.60;;;;;;;15.31;70.16;100806.98;105723;1270;24220;-61
2022/06/18 02:15:19;;;;;;;9.40;2.20;;;;;;;15.33;70.38;100804.54;105932;1270;25586;-62
2022/06/18 02:17:52;;;;;;;13.30;2.40;;;;;;;15.34;70.51;100801.48;105697;1271;22541;-61
2022/06/18 02:20:28;;;;;;;10.10;2.80;;;;;;;15.36;70.41;100801.64;105618;1271;25369;-63
2022/06/18 02:23:00;;;;;;;8.10;2.90;;;;;;;15.36;70.54;100801.59;105661;1271;22571;-61
2022/06/18 02:25:33;;;;;;;8.30;2.40;;;;;;;15.37;70.47;100803.13;105724;1270;25324;-61
2022/06/18 02:28:12;;;;;;;9.00;2.10;;;;;;;15.39;70.46;100803.98;105846;1270;24319;-65
2022/06/18 02:30:44;;;;;;;10.60;2.20;;;;;;;15.40;70.62;100805.25;105829;1270;26419;-62
2022/06/18 02:33:28;;;;;;;10.00;2.50;;;;;;;15.43;70.60;100802.13;105755;1270;22527;-62
2022/06/18 02:36:07;;;;;;;11.20;2.20;;;;;;;15.44;70.48;100805.16;105880;1270;22528;-62
2022/06/18 02:38:38;;;;;;;7.60;1.80;;;;;;;15.46;70.63;100805.34;105934;1271;22543;-62
2022/06/18 02:41:11;;;;;;;6.70;2.00;;;;;;;15.47;70.48;100804.94;105796;1270;24233;-62
2022/06/18 02:43:44;;;;;;;9.10;2.40;;;;;;;15.49;70.67;100806.48;106152;1270;22537;-61
2022/06/18 02:46:16;;;;;;;8.80;2.20;;;;;;;15.50;70.60;100806.03;105750;1270;22570;-62
2022/06/18 02:48:48;;;;;;;7.80;2.10;;;;;;;15.50;70.70;100805.83;106015;1270;24351;-62
2022/06/18 02:51:22;;;;;;;7.40;2.00;;;;;;;15.51;70.85;100802.88;105919;1270;22600;-63
2022/06/18 02:53:53;;;;;;;8.90;2.10;;;;;;;15.52;70.97;100803.59;105706;1270;22559;-62
2022/06/18 02:56:25;;;;;;;9.80;1.90;;;;;;;15.53;70.74;100804.27;105745;1270;22541;-62
2022/06/18 02:58:56;;;;;;;7.50;2.00;;;;;;;15.54;70.71;100803.25;105892;1270;24781;-62
2022/06/18 03:01:29;;;;;;;5.90;1.60;;;;;;;15.56;70.57;100800.41;105855;1270;25486;-62
2022/06/18 03:04:02;;;;;;;5.90;1.60;;;;;;;15.57;70.72;100800.16;105859;1270;22564;-62
2022/06/18 03:06:35;;;;;;;6.70;1.60;;;;;;;15.58;70.48;100800.72;105652;1271;22531;-62
2022/06/18 03:09:10;;;;;;;8.20;2.10;;;;;;;15.60;70.45;100796.18;105851;1270;26520;-62
2022/06/18 03:14:32;;;;;;;6.60;1.70;;;;;;;15.65;70.43;100793.15;105667;1271;22769;-62
2022/06/18 03:17:04;;;;;;;7.10;1.50;;;;;;;15.66;70.34;100795.83;105900;1271;24219;-62
2022/06/18 03:19:40;;;;;;;9.00;1.90;;;;;;;15.68;70.26;100800.59;105709;1270;22572;-61
2022/06/18 03:22:16;;;;;;;4.20;1.40;;;;;;;15.69;70.41;100801.64;105731;1270;24157;-62
2022/06/18 03:24:47;;;;;;;5.30;1.50;;;;;;;15.72;70.68;100798.21;105722;1270;22541;-62
2022/06/18 03:27:19;;;;;;;6.20;1.80;;;;;;;15.74;70.57;100800.02;105958;1271;24332;-62
2022/06/18 03:29:52;;;;;;;5.10;1.50;;;;;;;15.76;70.66;100803.67;105902;1271;22564;-61
2022/06/18 03:32:25;;;;;;;7.80;1.60;;;;;;;15.78;70.37;100803.17;105842;1271;25522;-62
2022/06/18 03:34:57;;;;;;;7.20;1.50;;;;;;;15.81;70.27;100802.42;105734;1273;22555;-64
2022/06/18 03:37:28;;;;;;;6.60;1.70;;;;;;;15.85;70.53;100802.75;105815;1270;25373;-62
2022/06/18 03:40:00;;;;;;;8.50;1.80;;;;;;;15.88;70.49;100800.48;105945;1271;23271;-62
2022/06/18 03:42:31;;;;;;;7.70;1.60;;;;;;;15.90;70.57;100796.30;105871;1273;22943;-62
2022/06/18 03:45:03;;;;;;;4.40;1.40;;;;;;;15.93;70.60;100798.98;105896;1272;22541;-62
2022/06/18 03:47:35;;;;;;;8.30;1.60;;;;;;;15.96;70.66;100794.73;105778;1271;24358;-62
2022/06/18 03:50:10;;;;;;;6.20;1.50;;;;;;;16.00;70.48;100791.44;105738;1271;24431;-62
2022/06/18 03:52:42;;;;;;;7.00;1.80;;;;;;;16.04;70.44;100793.15;106199;1271;22669;-61
2022/06/18 03:55:15;;;;;;;9.00;1.70;;;;;;;16.09;70.32;100789.48;105652;1273;22629;-62
2022/06/18 03:57:46;;;;;;;10.50;1.80;;;;;;;16.13;70.38;100786.23;105842;1271;22715;-63
2022/06/18 04:00:22;;;;;;;10.10;1.70;;;;;;;16.18;70.23;100787.23;105644;1273;23341;-62
2022/06/18 04:02:54;;;;;;;12.50;1.90;;;;;;;16.23;70.28;100788.69;105729;1271;25313;-62
2022/06/18 04:05:26;;;;;;;14.40;3.40;;;;;;;16.29;70.10;100791.02;105819;1271;23348;-61
2022/06/18 04:07:57;;;;;;;11.90;2.10;;;;;;;16.34;70.03;100785.10;105839;1271;22604;-62
2022/06/18 04:10:30;;;;;;;12.60;2.00;;;;;;;16.39;70.15;100782.66;105860;1271;22538;-62
2022/06/18 04:13:02;;;;;;;11.90;2.20;;;;;;;16.44;69.97;100779.81;105719;1271;22831;-63
2022/06/18 04:15:34;;;;;;;10.30;1.70;;;;;;;16.49;69.86;100780.77;105745;1272;24279;-61
2022/06/18 04:18:06;;;;;;;11.40;2.00;;;;;;;16.55;69.89;100780.13;105917;1271;22535;-62
2022/06/18 04:20:38;;;;;;;12.40;2.10;;;;;;;16.61;69.94;100781.08;105738;1271;24711;-62
2022/06/18 04:23:11;;;;;;;14.70;2.60;;;;;;;16.67;70.02;100779.25;105772;1271;25407;-63
2022/06/18 04:25:43;;;;;;;9.70;2.00;;;;;;;16.72;69.82;100781.11;105747;1271;23569;-62
2022/06/18 04:28:17;;;;;;;8.40;1.70;;;;;;;16.78;69.71;100777.91;105800;1273;25261;-63
2022/06/18 04:30:48;;;;;;;11.30;1.40;;;;;;;16.84;69.63;100783.70;105880;1273;22538;-62
2022/06/18 04:33:20;;;;;;;9.30;1.70;;;;;;;16.89;69.51;100784.89;105761;1271;22535;-61
2022/06/18 04:35:55;;;;;;;13.60;1.90;;;;;;;16.96;69.40;100787.11;105814;1272;23077;-61
2022/06/18 04:38:27;;;;;;;9.50;1.60;;;;;;;17.02;69.45;100790.36;106000;1271;23975;-63
2022/06/18 04:40:59;;;;;;;11.70;2.60;;;;;;;17.08;69.28;100787.64;105766;1271;24082;-62
2022/06/18 04:43:30;;;;;;;7.60;1.90;;;;;;;17.14;69.20;100780.77;105703;1270;24276;-62
2022/06/18 04:46:02;;;;;;;11.10;1.70;;;;;;;17.20;69.27;100772.83;105834;1271;22551;-62
2022/06/18 04:48:33;;;;;;;8.70;1.90;;;;;;;17.27;69.24;100771.76;105980;1270;22544;-62
2022/06/18 04:51:05;;;;;;;7.20;1.60;;;;;;;17.34;69.18;100771.95;105986;1270;22544;-62
2022/06/18 04:53:36;;;;;;;11.10;1.40;;;;;;;17.42;69.11;100764.41;105941;1271;24330;-62
2022/06/18 04:56:08;;;;;;;7.90;1.60;;;;;;;17.51;68.77;100758.42;105859;1270;22531;-63
2022/06/18 04:58:41;;;;;;;10.80;2.00;;;;;;;17.62;68.71;100759.90;105774;1270;22576;-62
2022/06/18 05:01:18;;;;;;;7.20;1.50;;;;;;;17.72;68.60;100760.61;105918;1268;22521;-63
2022/06/18 05:03:50;;;;;;;12.70;1.60;;;;;;;17.83;68.31;100756.27;105767;1270;22541;-63
2022/06/18 05:06:22;;;;;;;10.00;1.50;;;;;;;17.93;68.24;100759.54;105885;1270;24225;-63
2022/06/18 05:08:53;;;;;;;11.80;2.10;;;;;;;18.03;67.95;100756.00;105843;1270;22564;-63
2022/06/18 05:11:25;;;;;;;8.40;1.60;;;;;;;18.14;67.82;100755.30;106829;1270;22634;-63
2022/06/18 05:13:56;;;;;;;7.40;1.60;;;;;;;18.23;67.56;100755.48;105660;1270;22583;-63
2022/06/18 05:16:28;;;;;;;7.10;1.30;;;;;;;18.32;67.44;100757.85;105744;1270;22563;-62
2022/06/18 05:19:00;;;;;;;5.00;1.10;;;;;;;18.41;67.14;100752.31;105969;1270;22592;-63
2022/06/18 05:21:31;;;;;;;5.70;1.10;;;;;;;18.49;66.90;100746.40;105811;1270;24974;-62
2022/06/18 05:24:03;;;;;;;5.10;1.10;;;;;;;18.59;66.73;100747.93;105924;1270;25244;-63
2022/06/18 05:26:34;;;;;;;7.50;1.20;;;;;;;18.66;66.54;100747.13;105932;1270;22532;-63
2022/06/18 05:29:07;;;;;;;5.40;1.10;;;;;;;18.75;66.36;100751.13;105759;1270;24421;-62
2022/06/18 05:31:40;;;;;;;10.40;1.20;;;;;;;18.83;66.12;100752.17;109748;1270;22430;-63
2022/06/18 05:34:11;;;;;;;4.40;0.90;;;;;;;18.93;65.90;100754.14;109743;1270;23064;-64
2022/06/18 05:36:44;;;;;;;6.00;1.20;;;;;;;19.02;65.60;100750.38;109751;1270;22368;-63
2022/06/18 05:39:18;;;;;;;4.50;1.10;;;;;;;19.11;65.38;100749.90;107450;1270;25391;-63
2022/06/18 05:41:52;;;;;;;6.80;1.00;;;;;;;19.22;65.25;100749.35;105913;1270;22553;-63
2022/06/18 05:44:27;;;;;;;5.80;1.10;;;;;;;19.33;65.11;100745.05;106232;1270;25463;-64
2022/06/18 05:47:00;;;;;;;5.80;1.20;;;;;;;19.45;64.85;100742.02;106071;1271;22521;-63
2022/06/18 05:49:35;;;;;;;7.50;1.00;;;;;;;19.54;64.67;100737.86;105744;1271;24229;-64
2022/06/18 05:52:07;;;;;;;5.60;1.40;;;;;;;19.63;64.53;100728.11;105789;1270;22528;-63
2022/06/18 05:54:39;;;;;;;7.40;0.90;;;;;;;19.70;64.02;100726.59;105763;1270;23470;-64
2022/06/18 05:57:12;;;;;;;4.50;1.10;;;;;;;19.77;63.99;100735.89;105751;1270;25464;-63
2022/06/18 05:59:44;;;;;;;4.40;1.00;;;;;;;19.85;63.66;100734.52;105802;1270;24291;-62
2022/06/18 06:02:17;;;;;;;5.60;1.20;;;;;;;19.91;63.18;100733.73;105861;1271;25226;-63
2022/06/18 06:04:49;;;;;;;9.40;0.90;;;;;;;19.97;62.88;100729.22;105646;1270;22547;-63
2022/06/18 06:07:24;;;;;;;3.80;0.80;;;;;;;20.03;62.69;100730.86;105761;1270;22535;-64
2022/06/18 06:12:45;;;;;;;3.10;1.00;;;;;;;20.13;62.40;100736.36;105585;1270;22594;-63
2022/06/18 06:15:17;;;;;;;8.00;0.90;;;;;;;20.19;62.29;100738.52;105843;1270;22544;-63
2022/06/18 06:17:49;;;;;;;3.20;0.90;;;;;;;20.25;62.22;100735.25;105817;1270;22619;-63
2022/06/18 06:20:27;;;;;;;3.20;1.00;;;;;;;20.34;62.25;100730.77;105586;1271;25369;-63
2022/06/18 06:22:59;;;;;;;3.90;1.20;;;;;;;20.44;61.93;100730.00;105819;1271;24263;-62
2022/06/18 06:25:31;;;;;;;6.20;0.80;;;;;;;20.51;61.63;100735.17;105901;1271;24257;-62
2022/06/18 06:28:08;;;;;;;5.20;1.00;;;;;;;20.59;61.68;100730.08;105960;1270;25247;-62
2022/06/18 06:30:40;;;;;;;3.40;0.60;;;;;;;20.71;61.49;100729.74;105993;1270;24153;-62
2022/06/18 06:33:12;;;;;;;3.60;0.90;;;;;;;20.86;61.53;100726.62;106063;1270;25524;-62
2022/06/18 06:35:45;;;;;;;3.60;0.80;;;;;;;20.98;61.24;100726.79;106182;1271;25314;-63
2022/06/18 06:38:17;;;;;;;4.00;0.90;;;;;;;21.11;60.90;100722.19;105800;1271;22550;-64
2022/06/18 06:40:50;;;;;;;4.40;0.70;;;;;;;21.21;60.42;100714.84;106093;1270;22603;-63
2022/06/18 06:43:22;;;;;;;4.80;0.90;;;;;;;21.29;59.96;100714.08;105903;1270;25547;-63
2022/06/18 06:45:57;;;;;;;3.50;0.70;;;;;;;21.37;59.52;100709.45;105911;1270;24206;-64
2022/06/18 06:48:29;;;;;;;2.40;0.60;;;;;;;21.51;59.20;100706.09;106002;1270;25333;-63
2022/06/18 06:51:00;;;;;;;3.50;0.80;;;;;;;21.63;58.94;100704.84;105920;1270;22529;-63
2022/06/18 06:53:32;;;;;;;5.00;0.90;;;;;;;21.77;58.31;100697.67;106045;1270;24259;-62
2022/06/18 06:58:53;;;;;;;2.50;0.70;;;;;;;22.04;57.64;100688.17;105664;1271;22767;-64
2022/06/18 07:01:25;;;;;;;7.00;0.90;;;;;;;22.15;57.47;100689.45;105937;1271;26790;-63
2022/06/18 07:03:57;;;;;;;3.50;0.80;;;;;;;22.27;56.73;100685.63;105852;1270;23974;-63
2022/06/18 07:06:29;;;;;;;5.40;0.80;;;;;;;22.38;56.19;100684.02;106088;1270;22547;-63
2022/06/18 07:09:00;;;;;;;3.90;0.70;;;;;;;22.48;55.48;100685.66;105674;1271;25838;-65
2022/06/18 07:11:33;;;;;;;3.00;0.60;;;;;;;22.58;55.14;100684.21;105978;1270;22542;-63
2022/06/18 07:14:05;;;;;;;2.40;0.80;;;;;;;22.70;55.04;100674.89;105903;1271;22541;-64
2022/06/18 07:16:50;;;;;;;4.40;0.70;;;;;;;22.85;54.72;100671.99;105838;1270;22716;-63
2022/06/18 07:19:22;;;;;;;5.30;0.80;;;;;;;22.99;54.65;100665.08;106057;1271;22695;-64
2022/06/18 07:21:54;;;;;;;5.60;0.80;;;;;;;23.13;54.14;100666.68;107209;1270;22634;-65
2022/06/18 07:24:26;;;;;;;4.90;0.70;;;;;;;23.28;52.35;100671.83;109021;1269;22517;-55
2022/06/18 07:26:57;;;;;;;7.30;0.70;;;;;;;23.40;52.56;100673.00;105570;1273;22553;-50
2022/06/18 07:29:30;;;;;;;5.10;0.60;;;;;;;23.53;52.83;100669.45;105518;1274;338716;-53
2022/06/18 07:32:09;;;;;;;2.60;0.60;;;;;;;23.69;52.29;100667.65;105518;1274;25396;-51
2022/06/18 07:34:44;;;;;;;2.70;0.60;;;;;;;23.78;51.74;100662.17;105713;1276;26422;-53
2022/06/18 07:37:15;;;;;;;3.30;0.60;;;;;;;23.83;51.44;100659.62;105625;1274;22597;-53
2022/06/18 07:39:47;;;;;;;3.00;0.70;;;;;;;23.89;50.52;100658.42;109575;1273;22955;-55
2022/06/18 07:42:21;;;;;;;3.80;0.80;;;;;;;23.94;50.50;100652.93;109548;1273;22446;-54
2022/06/18 07:44:52;;;;;;;2.40;0.50;;;;;;;24.01;50.20;100653.55;108685;1274;24428;-51
2022/06/18 07:47:24;;;;;;;1.40;0.30;;;;;;;24.09;49.56;100658.63;105864;1274;25307;-52
2022/06/18 07:49:56;;;;;;;4.70;0.50;;;;;;;24.15;49.35;100656.64;105836;1274;25793;-54
2022/06/18 07:52:28;;;;;;;2.60;0.60;;;;;;;24.22;48.67;100663.05;105493;1274;25338;-56
2022/06/18 07:55:01;;;;;;;2.80;0.60;;;;;;;24.28;48.43;100660.08;105638;1274;24437;-51
2022/06/18 07:57:32;;;;;;;4.50;0.70;;;;;;;24.37;48.46;100661.25;105553;1273;22551;-54
2022/06/18 08:00:04;;;;;;;2.40;0.60;;;;;;;24.49;47.91;100658.66;105592;1274;24320;-55
2022/06/18 08:02:42;;;;;;;4.00;0.80;;;;;;;24.58;47.47;100654.45;105749;1274;22556;-53
2022/06/18 08:05:22;;;;;;;4.10;0.60;;;;;;;24.68;46.48;100654.27;105539;1273;24221;-53
2022/06/18 08:07:53;;;;;;;1.30;0.30;;;;;;;24.75;46.60;100645.48;105599;1274;22557;-52
2022/06/18 08:10:25;;;;;;;1.60;0.50;;;;;;;24.81;46.72;100647.15;105626;1276;23291;-50
2022/06/18 08:12:57;;;;;;;6.90;0.60;;;;;;;24.93;45.96;100641.21;105636;1273;22617;-52
2022/06/18 08:15:30;;;;;;;1.40;0.40;;;;;;;25.06;45.44;100643.33;105489;1274;26211;-52
2022/06/18 08:18:02;;;;;;;5.50;0.50;;;;;;;25.19;45.56;100644.85;105720;1274;26524;-54
2022/06/18 08:20:35;;;;;;;3.30;0.60;;;;;;;25.30;45.70;100643.36;105592;1274;22588;-54
2022/06/18 08:23:08;;;;;;;1.70;0.50;;;;;;;25.42;45.55;100645.20;105700;1274;22600;-53
2022/06/18 08:25:41;;;;;;;2.00;0.50;;;;;;;25.54;44.56;100642.05;105503;1276;22541;-55
2022/06/18 08:28:15;;;;;;;2.60;0.40;;;;;;;25.63;44.62;100643.34;105656;1274;22540;-50
2022/06/18 08:30:47;;;;;;;2.40;0.40;;;;;;;25.76;44.10;100646.36;105660;1274;22550;-54
2022/06/18 08:33:19;;;;;;;1.20;0.30;;;;;;;25.86;43.42;100640.27;105676;1274;22544;-54
2022/06/18 08:35:52;;;;;;;1.20;0.40;;;;;;;25.95;42.63;100632.91;105518;1276;22620;-52
2022/06/18 08:38:24;;;;;;;2.10;0.40;;;;;;;26.02;42.10;100630.21;105611;1274;24253;-51
2022/06/18 08:41:26;;;;;;;3.20;0.30;;;;;;;26.08;42.12;100621.50;105568;1276;26540;-53
2022/06/18 08:44:16;;;;;;;3.40;0.50;;;;;;;26.16;42.09;100613.40;105585;1276;22556;-52
2022/06/18 08:46:52;;;;;;;;;;;;;;;26.25;41.97;100610.48;105695;1274;25350;-52
2022/06/18 08:49:39;;;;;;;4.00;0.40;;;;;;;26.37;41.59;100604.73;105509;1275;22550;-52
2022/06/18 08:52:25;;;;;;;1.10;0.30;;;;;;;26.50;40.90;100603.13;105602;1276;22562;-55
2022/06/18 08:55:08;;;;;;;5.00;0.40;;;;;;;26.61;40.48;100598.92;105581;1276;22537;-54
2022/06/18 08:57:48;;;;;;;2.80;0.40;;;;;;;26.70;40.16;100597.53;105563;1274;22546;-53
2022/06/18 09:00:28;;;;;;;3.50;0.40;;;;;;;26.76;39.70;100592.27;105669;1274;22612;-53
2022/06/18 09:03:06;;;;;;;1.20;0.20;;;;;;;26.84;38.99;100584.77;105497;1274;22534;-56
2022/06/18 09:05:49;;;;;;;1.90;0.30;;;;;;;26.93;38.67;100580.41;105548;1276;23295;-51
2022/06/18 09:08:46;;;;;;;2.90;0.30;;;;;;;27.00;38.38;100577.52;105500;1274;22535;-52
2022/06/18 09:11:31;;;;;;;0.90;0.20;;;;;;;27.07;38.04;100575.28;105291;1279;25351;-50
2022/06/18 09:14:10;;;;;;;1.50;0.30;;;;;;;27.15;37.72;100577.88;105424;1279;22580;-54
2022/06/18 09:16:49;;;;;;;0.50;0.20;;;;;;;27.22;37.81;100573.76;105341;1279;24320;-53
2022/06/18 09:19:24;;;;;;;1.60;0.30;;;;;;;27.32;37.46;100567.64;105308;1279;23034;-54
2022/06/18 09:21:57;;;;;;;1.10;0.30;;;;;;;27.39;37.22;100569.58;105323;1279;25256;-53
2022/06/18 09:24:36;;;;;;;1.80;0.30;;;;;;;27.46;37.02;100571.07;105418;1279;24433;-54
2022/06/18 09:27:14;;;;;;;2.50;0.30;;;;;;;27.55;36.89;100568.66;105435;1278;22656;-54
2022/06/18 09:29:49;;;;;;;1.70;0.30;;;;;;;27.62;36.65;100564.91;105507;1277;22926;-56
2022/06/18 09:32:27;;;;;;;2.90;0.20;;;;;;;27.65;35.95;100567.77;105559;1277;22592;-52
2022/06/18 09:35:05;;;;;;;2.40;0.20;;;;;;;27.69;36.00;100570.81;105327;1277;25254;-53
2022/06/18 09:37:41;;;;;;;4.20;0.40;;;;;;;27.77;36.05;100565.35;105494;1277;22581;-51
2022/06/18 09:40:23;;;;;;;1.80;0.20;;;;;;;27.81;35.64;100555.74;105407;1277;25163;-53
2022/06/18 09:43:00;;;;;;;1.00;0.30;;;;;;;27.85;35.45;100550.36;105392;1278;23163;-53
2022/06/18 09:45:37;;;;;;;2.70;0.40;;;;;;;27.95;35.01;100554.92;105644;1278;22672;-54
2022/06/18 09:48:13;;;;;;;2.30;0.20;;;;;;;28.01;35.23;100547.81;105567;1276;29162;-54
2022/06/18 09:50:47;;;;;;;1.30;0.10;;;;;;;28.07;34.99;100546.24;105726;1274;22557;-54
2022/06/18 09:53:24;;;;;;;2.20;0.20;;;;;;;28.16;34.77;100539.95;105635;1274;24530;-54
2022/06/18 09:55:58;;;;;;;1.40;0.20;;;;;;;28.21;34.47;100546.85;105683;1273;25365;-53
2022/06/18 09:58:35;;;;;;;1.50;0.20;;;;;;;28.23;33.54;100547.28;105573;1273;25430;-54
2022/06/18 10:01:09;;;;;;;3.30;0.30;;;;;;;28.26;32.56;100543.91;105586;1274;22664;-54
2022/06/18 10:09:24;;;;;;;;;;;;;;;28.26;32.04;100528.01;105677;1274;23079;-51
2022/06/18 10:11:57;;;;;;;1.50;0.20;;;;;;;28.34;31.91;100523.88;105663;1274;22551;-54
2022/06/18 10:14:29;;;;;;;1.00;0.30;;;;;;;28.41;32.05;100519.83;105529;1276;25317;-55
2022/06/18 10:17:13;;;;;;;1.10;0.20;;;;;;;28.49;32.10;100517.17;105649;1274;25581;-53
2022/06/18 10:19:59;;;;;;;1.80;0.20;;;;;;;28.58;32.29;100511.91;105517;1276;25489;-54
2022/06/18 10:22:39;;;;;;;2.10;0.20;;;;;;;28.71;32.07;100508.88;105637;1274;25379;-54
2022/06/18 10:25:25;;;;;;;2.40;0.20;;;;;;;28.76;30.98;100506.30;105456;1276;25256;-51
2022/06/18 10:28:08;;;;;;;2.10;0.30;;;;;;;28.70;31.63;100500.63;105508;1276;25293;-54
2022/06/18 10:30:50;;;;;;;0.60;0.20;;;;;;;28.76;31.39;100498.52;105497;1276;22557;-52
2022/06/18 10:33:34;;;;;;;1.70;0.40;;;;;;;28.84;31.67;100498.29;105474;1276;24317;-53
2022/06/18 10:36:16;;;;;;;0.90;0.30;;;;;;;28.92;30.82;100500.03;105578;1276;24564;-51
2022/06/18 10:39:16;;;;;;;3.00;0.20;;;;;;;28.94;30.78;100491.39;105553;1276;25488;-51
2022/06/18 10:42:11;;;;;;;2.20;0.30;;;;;;;28.95;30.85;100488.94;105518;1276;22560;-51
2022/06/18 10:44:59;;;;;;;0.90;0.20;;;;;;;29.00;30.62;100484.98;105400;1276;26302;-55
2022/06/18 10:47:37;;;;;;;1.70;0.20;;;;;;;29.02;30.38;100479.49;105491;1276;22540;-54
2022/06/18 10:50:13;;;;;;;4.60;0.20;;;;;;;29.07;30.30;100475.14;105520;1276;22534;-55
2022/06/18 10:52:46;;;;;;;2.10;0.20;;;;;;;29.08;30.45;100467.77;105484;1276;24100;-56
2022/06/18 10:55:21;;;;;;;1.50;0.30;;;;;;;29.12;29.99;100470.23;105516;1276;25357;-52
2022/06/18 10:57:53;;;;;;;1.60;0.20;;;;;;;29.13;30.02;100466.98;105778;1276;25243;-52
2022/06/18 11:00:28;;;;;;;1.60;0.20;;;;;;;29.17;30.02;100464.05;105548;1275;22550;-55
2022/06/18 11:03:03;;;;;;;2.40;0.20;;;;;;;29.24;29.97;100462.30;105573;1276;24226;-55
2022/06/18 11:05:37;;;;;;;1.00;0.20;;;;;;;29.30;29.99;100459.27;105638;1275;25308;-55
2022/06/18 11:08:22;;;;;;;5.60;0.50;;;;;;;29.40;29.78;100457.11;105561;1276;22519;-53
2022/06/18 11:10:56;;;;;;;1.20;0.20;;;;;;;29.50;29.69;100453.71;105532;1276;24251;-55
2022/06/18 11:13:35;;;;;;;1.10;0.30;;;;;;;29.55;29.92;100449.49;105558;1276;23981;-52
2022/06/18 11:16:13;;;;;;;1.80;0.30;;;;;;;29.62;29.92;100446.94;105569;1276;22557;-53
2022/06/18 11:18:52;;;;;;;1.10;0.30;;;;;;;29.70;29.81;100445.93;105877;1276;25526;-51
2022/06/18 11:21:34;;;;;;;2.40;0.40;;;;;;;29.78;29.31;100444.69;105585;1276;25470;-51
2022/06/18 11:24:22;;;;;;;2.40;0.30;;;;;;;29.82;29.24;100438.33;105675;1276;22542;-56
2022/06/18 11:27:00;;;;;;;2.00;0.30;;;;;;;29.84;29.09;100433.92;105561;1273;22764;-54
2022/06/18 11:29:37;;;;;;;2.20;0.50;;;;;;;29.85;29.04;100433.44;105719;1276;22547;-52
2022/06/18 11:32:13;;;;;;;2.00;0.30;;;;;;;29.82;29.27;100433.61;105587;1276;24427;-51
2022/06/18 11:34:49;;;;;;;1.30;0.30;;;;;;;29.83;29.11;100429.55;105670;1275;22578;-50
2022/06/18 11:37:26;;;;;;;1.40;0.30;;;;;;;29.84;28.95;100421.12;105652;1273;22539;-52
2022/06/18 11:40:03;;;;;;;1.20;0.30;;;;;;;29.89;28.88;100423.88;105530;1275;22661;-55
2022/06/18 11:42:41;;;;;;;1.10;0.30;;;;;;;29.95;29.12;100419.73;105614;1273;24320;-53
2022/06/18 11:45:29;;;;;;;1.30;0.20;;;;;;;30.05;29.03;100419.73;105784;1273;22537;-56
2022/06/18 11:48:06;;;;;;;1.00;0.30;;;;;;;30.10;28.75;100417.52;105794;1274;25295;-53
2022/06/18 11:50:45;;;;;;;1.20;0.20;;;;;;;30.14;28.86;100406.96;105659;1274;22520;-53
2022/06/18 11:53:23;;;;;;;1.90;0.40;;;;;;;30.16;28.74;100399.77;105617;1273;25521;-54
2022/06/18 11:55:58;;;;;;;2.40;0.40;;;;;;;30.21;28.95;100394.41;105691;1276;22657;-53
2022/06/18 11:58:38;;;;;;;9.60;1.30;;;;;;;30.25;28.54;100392.97;105604;1274;24435;-51
2022/06/18 12:01:20;;;;;;;4.70;0.40;;;;;;;30.25;28.53;100390.95;105623;1276;24313;-54
2022/06/18 12:03:57;;;;;;;2.50;0.30;;;;;;;30.28;28.41;100388.70;105880;1276;23033;-54
2022/06/18 12:06:40;;;;;;;1.40;0.20;;;;;;;30.34;28.47;100389.02;105654;1273;22537;-53
2022/06/18 12:09:15;;;;;;;2.50;0.20;;;;;;;30.38;28.51;100385.37;105709;1274;25433;-53